sensor_id;sensor_type;location;lat;lon;timestamp;P1;durP1;ratioP1;P2;durP2;ratioP2
53411;SDS011;39307;52.870;13.660;2024-01-10T00:01:12;9.90;;;7.32;;
53411;SDS011;39307;52.870;13.660;2024-01-10T00:03:39;10.00;;;7.45;;
53411;SDS011;39307;52.870;13.660;2024-01-10T00:06:06;10.68;;;7.53;;
53411;SDS011;39307;52.870;13.660;2024-01-10T00:08:33;10.18;;;7.47;;
53411;SDS011;39307;52.870;13.660;2024-01-10T00:11:00;10.38;;;7.38;;
53411;SDS011;39307;52.870;13.660;2024-01-10T00:13:27;10.75;;;7.70;;
53411;SDS011;39307;52.870;13.660;2024-01-10T00:15:57;10.73;;;7.93;;
53411;SDS011;39307;52.870;13.660;2024-01-10T00:18:24;10.18;;;7.43;;
53411;SDS011;39307;52.870;13.660;2024-01-10T00:20:51;10.93;;;7.78;;
53411;SDS011;39307;52.870;13.660;2024-01-10T00:23:18;11.27;;;8.10;;
53411;SDS011;39307;52.870;13.660;2024-01-10T00:25:46;10.55;;;7.68;;
53411;SDS011;39307;52.870;13.660;2024-01-10T00:28:14;10.80;;;7.97;;
53411;SDS011;39307;52.870;13.660;2024-01-10T00:30:41;11.32;;;8.25;;
53411;SDS011;39307;52.870;13.660;2024-01-10T00:33:08;10.20;;;7.13;;
53411;SDS011;39307;52.870;13.660;2024-01-10T00:35:35;9.80;;;7.15;;
53411;SDS011;39307;52.870;13.660;2024-01-10T00:38:01;10.07;;;7.10;;
53411;SDS011;39307;52.870;13.660;2024-01-10T00:40:29;10.50;;;7.45;;
53411;SDS011;39307;52.870;13.660;2024-01-10T00:42:55;10.80;;;7.50;;
53411;SDS011;39307;52.870;13.660;2024-01-10T00:45:22;10.90;;;7.78;;
53411;SDS011;39307;52.870;13.660;2024-01-10T00:47:50;11.63;;;8.20;;
53411;SDS011;39307;52.870;13.660;2024-01-10T00:50:16;10.40;;;8.00;;
53411;SDS011;39307;52.870;13.660;2024-01-10T00:52:44;10.90;;;7.88;;
53411;SDS011;39307;52.870;13.660;2024-01-10T00:55:11;10.48;;;7.70;;
53411;SDS011;39307;52.870;13.660;2024-01-10T00:57:38;11.60;;;8.23;;
53411;SDS011;39307;52.870;13.660;2024-01-10T01:00:09;10.63;;;8.05;;
53411;SDS011;39307;52.870;13.660;2024-01-10T01:02:37;10.87;;;8.20;;
53411;SDS011;39307;52.870;13.660;2024-01-10T01:05:04;12.02;;;9.07;;
53411;SDS011;39307;52.870;13.660;2024-01-10T01:07:31;12.10;;;8.82;;
53411;SDS011;39307;52.870;13.660;2024-01-10T01:09:59;11.18;;;8.38;;
53411;SDS011;39307;52.870;13.660;2024-01-10T01:12:26;11.67;;;8.63;;
53411;SDS011;39307;52.870;13.660;2024-01-10T01:14:53;11.95;;;8.70;;
53411;SDS011;39307;52.870;13.660;2024-01-10T01:17:20;12.75;;;8.88;;
53411;SDS011;39307;52.870;13.660;2024-01-10T01:19:47;11.60;;;8.70;;
53411;SDS011;39307;52.870;13.660;2024-01-10T01:22:14;11.50;;;8.93;;
53411;SDS011;39307;52.870;13.660;2024-01-10T01:24:41;11.20;;;8.50;;
53411;SDS011;39307;52.870;13.660;2024-01-10T01:27:07;10.70;;;8.05;;
53411;SDS011;39307;52.870;13.660;2024-01-10T01:29:34;10.33;;;7.77;;
53411;SDS011;39307;52.870;13.660;2024-01-10T01:32:01;10.65;;;8.40;;
53411;SDS011;39307;52.870;13.660;2024-01-10T01:34:28;11.35;;;8.23;;
53411;SDS011;39307;52.870;13.660;2024-01-10T01:36:55;12.20;;;9.27;;
53411;SDS011;39307;52.870;13.660;2024-01-10T01:39:22;11.82;;;8.60;;
53411;SDS011;39307;52.870;13.660;2024-01-10T01:41:49;12.88;;;9.52;;
53411;SDS011;39307;52.870;13.660;2024-01-10T01:44:16;13.27;;;9.65;;
53411;SDS011;39307;52.870;13.660;2024-01-10T01:46:43;12.13;;;9.18;;
53411;SDS011;39307;52.870;13.660;2024-01-10T01:49:11;12.35;;;9.27;;
53411;SDS011;39307;52.870;13.660;2024-01-10T01:51:38;11.82;;;9.32;;
53411;SDS011;39307;52.870;13.660;2024-01-10T01:54:07;12.35;;;9.25;;
53411;SDS011;39307;52.870;13.660;2024-01-10T01:56:35;11.80;;;8.93;;
53411;SDS011;39307;52.870;13.660;2024-01-10T01:59:04;13.30;;;9.70;;
53411;SDS011;39307;52.870;13.660;2024-01-10T02:01:31;13.23;;;10.07;;
53411;SDS011;39307;52.870;13.660;2024-01-10T02:03:59;12.55;;;9.90;;
53411;SDS011;39307;52.870;13.660;2024-01-10T02:06:31;13.13;;;9.65;;
53411;SDS011;39307;52.870;13.660;2024-01-10T02:08:58;13.05;;;10.15;;
53411;SDS011;39307;52.870;13.660;2024-01-10T02:11:25;13.27;;;10.05;;
53411;SDS011;39307;52.870;13.660;2024-01-10T02:13:52;11.82;;;8.90;;
53411;SDS011;39307;52.870;13.660;2024-01-10T02:16:19;11.80;;;9.18;;
53411;SDS011;39307;52.870;13.660;2024-01-10T02:18:48;12.32;;;9.20;;
53411;SDS011;39307;52.870;13.660;2024-01-10T02:21:15;12.30;;;9.60;;
53411;SDS011;39307;52.870;13.660;2024-01-10T02:23:46;13.30;;;9.77;;
53411;SDS011;39307;52.870;13.660;2024-01-10T02:26:14;13.80;;;10.20;;
53411;SDS011;39307;52.870;13.660;2024-01-10T02:28:42;13.80;;;10.18;;
53411;SDS011;39307;52.870;13.660;2024-01-10T02:31:08;13.57;;;10.00;;
53411;SDS011;39307;52.870;13.660;2024-01-10T02:33:35;13.77;;;10.20;;
53411;SDS011;39307;52.870;13.660;2024-01-10T02:36:02;13.30;;;10.27;;
53411;SDS011;39307;52.870;13.660;2024-01-10T02:38:29;13.65;;;10.27;;
53411;SDS011;39307;52.870;13.660;2024-01-10T02:40:56;13.30;;;10.00;;
53411;SDS011;39307;52.870;13.660;2024-01-10T02:43:23;13.27;;;10.02;;
53411;SDS011;39307;52.870;13.660;2024-01-10T02:45:50;13.48;;;10.52;;
53411;SDS011;39307;52.870;13.660;2024-01-10T02:48:17;13.90;;;10.32;;
53411;SDS011;39307;52.870;13.660;2024-01-10T02:50:43;14.25;;;11.10;;
53411;SDS011;39307;52.870;13.660;2024-01-10T02:53:10;13.95;;;10.75;;
53411;SDS011;39307;52.870;13.660;2024-01-10T02:55:37;14.15;;;10.98;;
53411;SDS011;39307;52.870;13.660;2024-01-10T02:58:04;13.60;;;10.85;;
53411;SDS011;39307;52.870;13.660;2024-01-10T03:00:31;13.17;;;10.10;;
53411;SDS011;39307;52.870;13.660;2024-01-10T03:02:58;12.45;;;9.63;;
53411;SDS011;39307;52.870;13.660;2024-01-10T03:05:25;12.65;;;10.38;;
53411;SDS011;39307;52.870;13.660;2024-01-10T03:07:52;14.68;;;10.55;;
53411;SDS011;39307;52.870;13.660;2024-01-10T03:10:19;14.05;;;10.82;;
53411;SDS011;39307;52.870;13.660;2024-01-10T03:12:46;14.00;;;11.52;;
53411;SDS011;39307;52.870;13.660;2024-01-10T03:15:13;13.68;;;11.02;;
53411;SDS011;39307;52.870;13.660;2024-01-10T03:17:40;13.70;;;10.80;;
53411;SDS011;39307;52.870;13.660;2024-01-10T03:20:07;13.98;;;10.98;;
53411;SDS011;39307;52.870;13.660;2024-01-10T03:22:34;14.73;;;11.15;;
53411;SDS011;39307;52.870;13.660;2024-01-10T03:25:02;14.15;;;11.02;;
53411;SDS011;39307;52.870;13.660;2024-01-10T03:27:29;15.13;;;11.80;;
53411;SDS011;39307;52.870;13.660;2024-01-10T03:29:56;15.13;;;11.55;;
53411;SDS011;39307;52.870;13.660;2024-01-10T03:32:23;14.85;;;11.52;;
53411;SDS011;39307;52.870;13.660;2024-01-10T03:34:50;16.02;;;12.15;;
53411;SDS011;39307;52.870;13.660;2024-01-10T03:37:16;15.43;;;12.18;;
53411;SDS011;39307;52.870;13.660;2024-01-10T03:39:44;14.82;;;11.90;;
53411;SDS011;39307;52.870;13.660;2024-01-10T03:42:10;14.75;;;11.50;;
53411;SDS011;39307;52.870;13.660;2024-01-10T03:44:38;15.68;;;12.50;;
53411;SDS011;39307;52.870;13.660;2024-01-10T03:47:05;15.27;;;12.13;;
53411;SDS011;39307;52.870;13.660;2024-01-10T03:49:32;14.57;;;11.20;;
53411;SDS011;39307;52.870;13.660;2024-01-10T03:51:58;13.60;;;10.75;;
53411;SDS011;39307;52.870;13.660;2024-01-10T03:54:25;14.57;;;11.18;;
53411;SDS011;39307;52.870;13.660;2024-01-10T03:56:52;14.85;;;11.80;;
53411;SDS011;39307;52.870;13.660;2024-01-10T03:59:19;14.70;;;12.02;;
53411;SDS011;39307;52.870;13.660;2024-01-10T04:01:46;15.38;;;12.23;;
53411;SDS011;39307;52.870;13.660;2024-01-10T04:04:13;14.85;;;11.95;;
53411;SDS011;39307;52.870;13.660;2024-01-10T04:06:40;16.27;;;12.43;;
53411;SDS011;39307;52.870;13.660;2024-01-10T04:09:07;15.57;;;12.75;;
53411;SDS011;39307;52.870;13.660;2024-01-10T04:11:34;15.38;;;12.05;;
53411;SDS011;39307;52.870;13.660;2024-01-10T04:14:01;16.57;;;12.70;;
53411;SDS011;39307;52.870;13.660;2024-01-10T04:16:28;16.52;;;12.55;;
53411;SDS011;39307;52.870;13.660;2024-01-10T04:18:55;17.17;;;13.32;;
53411;SDS011;39307;52.870;13.660;2024-01-10T04:21:22;15.73;;;12.48;;
53411;SDS011;39307;52.870;13.660;2024-01-10T04:23:49;17.23;;;13.10;;
53411;SDS011;39307;52.870;13.660;2024-01-10T04:26:16;16.33;;;13.15;;
53411;SDS011;39307;52.870;13.660;2024-01-10T04:28:43;16.20;;;12.82;;
53411;SDS011;39307;52.870;13.660;2024-01-10T04:31:10;17.63;;;13.48;;
53411;SDS011;39307;52.870;13.660;2024-01-10T04:33:36;16.38;;;12.65;;
53411;SDS011;39307;52.870;13.660;2024-01-10T04:36:03;14.73;;;11.55;;
53411;SDS011;39307;52.870;13.660;2024-01-10T04:38:31;13.90;;;11.32;;
53411;SDS011;39307;52.870;13.660;2024-01-10T04:40:57;15.88;;;12.68;;
53411;SDS011;39307;52.870;13.660;2024-01-10T04:43:24;15.60;;;12.27;;
53411;SDS011;39307;52.870;13.660;2024-01-10T04:45:51;15.32;;;12.05;;
53411;SDS011;39307;52.870;13.660;2024-01-10T04:48:18;16.27;;;12.98;;
53411;SDS011;39307;52.870;13.660;2024-01-10T04:50:45;16.48;;;13.50;;
53411;SDS011;39307;52.870;13.660;2024-01-10T04:53:12;17.45;;;13.50;;
53411;SDS011;39307;52.870;13.660;2024-01-10T04:55:39;17.83;;;13.50;;
53411;SDS011;39307;52.870;13.660;2024-01-10T04:58:06;17.27;;;14.13;;
53411;SDS011;39307;52.870;13.660;2024-01-10T05:00:32;17.10;;;13.60;;
53411;SDS011;39307;52.870;13.660;2024-01-10T05:02:59;17.05;;;13.57;;
53411;SDS011;39307;52.870;13.660;2024-01-10T05:05:26;16.85;;;13.32;;
53411;SDS011;39307;52.870;13.660;2024-01-10T05:07:53;17.20;;;13.43;;
53411;SDS011;39307;52.870;13.660;2024-01-10T05:10:19;16.88;;;13.55;;
53411;SDS011;39307;52.870;13.660;2024-01-10T05:12:46;16.92;;;13.93;;
53411;SDS011;39307;52.870;13.660;2024-01-10T05:15:13;17.85;;;14.40;;
53411;SDS011;39307;52.870;13.660;2024-01-10T05:17:40;16.95;;;14.10;;
53411;SDS011;39307;52.870;13.660;2024-01-10T05:20:07;18.00;;;14.67;;
53411;SDS011;39307;52.870;13.660;2024-01-10T05:22:35;17.40;;;14.07;;
53411;SDS011;39307;52.870;13.660;2024-01-10T05:25:02;15.98;;;12.60;;
53411;SDS011;39307;52.870;13.660;2024-01-10T05:27:30;15.77;;;12.43;;
53411;SDS011;39307;52.870;13.660;2024-01-10T05:29:56;16.60;;;13.25;;
53411;SDS011;39307;52.870;13.660;2024-01-10T05:32:23;17.00;;;13.38;;
53411;SDS011;39307;52.870;13.660;2024-01-10T05:34:51;16.47;;;13.13;;
53411;SDS011;39307;52.870;13.660;2024-01-10T05:37:19;17.75;;;14.35;;
53411;SDS011;39307;52.870;13.660;2024-01-10T05:39:46;18.42;;;14.57;;
53411;SDS011;39307;52.870;13.660;2024-01-10T05:42:13;18.27;;;14.27;;
53411;SDS011;39307;52.870;13.660;2024-01-10T05:44:40;17.65;;;13.65;;
53411;SDS011;39307;52.870;13.660;2024-01-10T05:47:06;17.80;;;14.20;;
53411;SDS011;39307;52.870;13.660;2024-01-10T05:49:33;17.85;;;14.68;;
53411;SDS011;39307;52.870;13.660;2024-01-10T05:52:00;18.23;;;14.70;;
53411;SDS011;39307;52.870;13.660;2024-01-10T05:54:27;18.23;;;14.38;;
53411;SDS011;39307;52.870;13.660;2024-01-10T05:56:54;18.37;;;14.33;;
53411;SDS011;39307;52.870;13.660;2024-01-10T05:59:21;17.65;;;14.25;;
53411;SDS011;39307;52.870;13.660;2024-01-10T06:01:48;19.35;;;15.05;;
53411;SDS011;39307;52.870;13.660;2024-01-10T06:04:15;19.10;;;15.33;;
53411;SDS011;39307;52.870;13.660;2024-01-10T06:06:42;18.45;;;14.85;;
53411;SDS011;39307;52.870;13.660;2024-01-10T06:09:09;18.30;;;15.07;;
53411;SDS011;39307;52.870;13.660;2024-01-10T06:11:42;18.13;;;14.10;;
53411;SDS011;39307;52.870;13.660;2024-01-10T06:14:09;17.73;;;14.02;;
53411;SDS011;39307;52.870;13.660;2024-01-10T06:16:36;17.25;;;13.95;;
53411;SDS011;39307;52.870;13.660;2024-01-10T06:19:03;18.17;;;13.95;;
53411;SDS011;39307;52.870;13.660;2024-01-10T06:21:30;18.27;;;14.68;;
53411;SDS011;39307;52.870;13.660;2024-01-10T06:23:57;18.13;;;14.43;;
53411;SDS011;39307;52.870;13.660;2024-01-10T06:26:24;18.42;;;14.88;;
53411;SDS011;39307;52.870;13.660;2024-01-10T06:28:51;20.07;;;15.13;;
53411;SDS011;39307;52.870;13.660;2024-01-10T06:31:17;18.38;;;14.63;;
53411;SDS011;39307;52.870;13.660;2024-01-10T06:33:44;19.85;;;15.38;;
53411;SDS011;39307;52.870;13.660;2024-01-10T06:36:11;18.92;;;15.50;;
53411;SDS011;39307;52.870;13.660;2024-01-10T06:38:39;19.55;;;15.20;;
53411;SDS011;39307;52.870;13.660;2024-01-10T06:41:09;19.15;;;15.38;;
53411;SDS011;39307;52.870;13.660;2024-01-10T06:43:37;20.52;;;15.90;;
53411;SDS011;39307;52.870;13.660;2024-01-10T06:46:03;18.53;;;15.20;;
53411;SDS011;39307;52.870;13.660;2024-01-10T06:48:31;19.73;;;15.80;;
53411;SDS011;39307;52.870;13.660;2024-01-10T06:50:58;21.23;;;16.30;;
53411;SDS011;39307;52.870;13.660;2024-01-10T06:53:25;19.33;;;15.98;;
53411;SDS011;39307;52.870;13.660;2024-01-10T06:55:52;19.55;;;16.25;;
53411;SDS011;39307;52.870;13.660;2024-01-10T06:58:19;20.45;;;16.02;;
53411;SDS011;39307;52.870;13.660;2024-01-10T07:00:46;19.67;;;15.90;;
53411;SDS011;39307;52.870;13.660;2024-01-10T07:03:13;18.85;;;14.77;;
53411;SDS011;39307;52.870;13.660;2024-01-10T07:05:40;18.35;;;14.70;;
53411;SDS011;39307;52.870;13.660;2024-01-10T07:08:07;19.35;;;14.98;;
53411;SDS011;39307;52.870;13.660;2024-01-10T07:10:34;17.77;;;14.70;;
53411;SDS011;39307;52.870;13.660;2024-01-10T07:13:00;19.10;;;15.57;;
53411;SDS011;39307;52.870;13.660;2024-01-10T07:15:27;20.10;;;15.70;;
53411;SDS011;39307;52.870;13.660;2024-01-10T07:17:54;20.25;;;16.20;;
53411;SDS011;39307;52.870;13.660;2024-01-10T07:20:21;19.92;;;16.23;;
53411;SDS011;39307;52.870;13.660;2024-01-10T07:22:48;20.65;;;16.08;;
53411;SDS011;39307;52.870;13.660;2024-01-10T07:25:15;20.50;;;16.53;;
53411;SDS011;39307;52.870;13.660;2024-01-10T07:27:45;20.08;;;16.52;;
53411;SDS011;39307;52.870;13.660;2024-01-10T07:30:12;20.92;;;16.80;;
53411;SDS011;39307;52.870;13.660;2024-01-10T07:32:40;21.17;;;16.48;;
53411;SDS011;39307;52.870;13.660;2024-01-10T07:35:10;20.17;;;16.30;;
53411;SDS011;39307;52.870;13.660;2024-01-10T07:37:38;20.65;;;16.90;;
53411;SDS011;39307;52.870;13.660;2024-01-10T07:40:06;21.63;;;16.95;;
53411;SDS011;39307;52.870;13.660;2024-01-10T07:42:34;20.75;;;17.02;;
53411;SDS011;39307;52.870;13.660;2024-01-10T07:45:01;22.35;;;17.48;;
53411;SDS011;39307;52.870;13.660;2024-01-10T07:47:29;18.40;;;15.18;;
53411;SDS011;39307;52.870;13.660;2024-01-10T07:49:57;18.98;;;15.45;;
53411;SDS011;39307;52.870;13.660;2024-01-10T07:52:24;19.90;;;15.65;;
53411;SDS011;39307;52.870;13.660;2024-01-10T07:54:51;19.88;;;16.25;;
53411;SDS011;39307;52.870;13.660;2024-01-10T07:57:18;21.10;;;16.85;;
53411;SDS011;39307;52.870;13.660;2024-01-10T07:59:45;20.65;;;16.30;;
53411;SDS011;39307;52.870;13.660;2024-01-10T08:02:12;21.83;;;17.23;;
53411;SDS011;39307;52.870;13.660;2024-01-10T08:04:39;21.58;;;17.23;;
53411;SDS011;39307;52.870;13.660;2024-01-10T08:07:06;21.15;;;17.13;;
53411;SDS011;39307;52.870;13.660;2024-01-10T08:09:34;21.70;;;17.08;;
53411;SDS011;39307;52.870;13.660;2024-01-10T08:12:00;21.38;;;17.33;;
53411;SDS011;39307;52.870;13.660;2024-01-10T08:14:28;23.38;;;17.55;;
53411;SDS011;39307;52.870;13.660;2024-01-10T08:16:55;20.52;;;17.25;;
53411;SDS011;39307;52.870;13.660;2024-01-10T08:19:22;22.48;;;18.20;;
53411;SDS011;39307;52.870;13.660;2024-01-10T08:21:49;21.90;;;18.00;;
53411;SDS011;39307;52.870;13.660;2024-01-10T08:24:16;23.48;;;18.55;;
53411;SDS011;39307;52.870;13.660;2024-01-10T08:26:43;22.38;;;18.15;;
53411;SDS011;39307;52.870;13.660;2024-01-10T08:29:10;22.37;;;18.30;;
53411;SDS011;39307;52.870;13.660;2024-01-10T08:31:37;22.43;;;17.77;;
53411;SDS011;39307;52.870;13.660;2024-01-10T08:34:03;18.92;;;15.60;;
53411;SDS011;39307;52.870;13.660;2024-01-10T08:36:30;20.67;;;16.20;;
53411;SDS011;39307;52.870;13.660;2024-01-10T08:38:57;21.98;;;17.52;;
53411;SDS011;39307;52.870;13.660;2024-01-10T08:41:24;20.73;;;16.70;;
53411;SDS011;39307;52.870;13.660;2024-01-10T08:43:51;22.30;;;17.60;;
53411;SDS011;39307;52.870;13.660;2024-01-10T08:46:18;21.20;;;17.58;;
53411;SDS011;39307;52.870;13.660;2024-01-10T08:48:45;22.27;;;18.30;;
53411;SDS011;39307;52.870;13.660;2024-01-10T08:51:12;22.40;;;18.23;;
53411;SDS011;39307;52.870;13.660;2024-01-10T08:53:39;22.40;;;18.30;;
53411;SDS011;39307;52.870;13.660;2024-01-10T08:56:06;23.27;;;18.38;;
53411;SDS011;39307;52.870;13.660;2024-01-10T08:58:33;22.55;;;17.90;;
53411;SDS011;39307;52.870;13.660;2024-01-10T09:01:22;22.63;;;18.37;;
53411;SDS011;39307;52.870;13.660;2024-01-10T09:03:49;21.92;;;17.73;;
53411;SDS011;39307;52.870;13.660;2024-01-10T09:06:16;23.83;;;18.52;;
53411;SDS011;39307;52.870;13.660;2024-01-10T09:08:43;23.45;;;18.92;;
53411;SDS011;39307;52.870;13.660;2024-01-10T09:11:10;23.33;;;19.47;;
53411;SDS011;39307;52.870;13.660;2024-01-10T09:13:37;22.90;;;18.50;;
53411;SDS011;39307;52.870;13.660;2024-01-10T09:16:04;23.27;;;18.35;;
53411;SDS011;39307;52.870;13.660;2024-01-10T09:18:31;20.50;;;16.10;;
53411;SDS011;39307;52.870;13.660;2024-01-10T09:20:58;19.80;;;16.20;;
53411;SDS011;39307;52.870;13.660;2024-01-10T09:23:24;22.23;;;17.50;;
53411;SDS011;39307;52.870;13.660;2024-01-10T09:25:51;22.00;;;17.52;;
53411;SDS011;39307;52.870;13.660;2024-01-10T09:28:19;23.25;;;18.27;;
53411;SDS011;39307;52.870;13.660;2024-01-10T09:30:46;22.17;;;17.58;;
53411;SDS011;39307;52.870;13.660;2024-01-10T09:33:13;23.73;;;18.58;;
53411;SDS011;39307;52.870;13.660;2024-01-10T09:35:40;22.80;;;18.08;;
53411;SDS011;39307;52.870;13.660;2024-01-10T09:38:07;22.63;;;18.27;;
53411;SDS011;39307;52.870;13.660;2024-01-10T09:40:35;23.08;;;18.35;;
53411;SDS011;39307;52.870;13.660;2024-01-10T09:43:02;22.33;;;18.52;;
53411;SDS011;39307;52.870;13.660;2024-01-10T09:45:30;22.00;;;18.50;;
53411;SDS011;39307;52.870;13.660;2024-01-10T09:48:01;23.73;;;19.05;;
53411;SDS011;39307;52.870;13.660;2024-01-10T09:50:29;23.98;;;19.20;;
53411;SDS011;39307;52.870;13.660;2024-01-10T09:53:02;23.67;;;18.37;;
53411;SDS011;39307;52.870;13.660;2024-01-10T09:55:33;24.33;;;19.90;;
53411;SDS011;39307;52.870;13.660;2024-01-10T09:58:05;22.88;;;19.00;;
53411;SDS011;39307;52.870;13.660;2024-01-10T10:00:33;22.08;;;17.48;;
53411;SDS011;39307;52.870;13.660;2024-01-10T10:03:00;19.97;;;16.40;;
53411;SDS011;39307;52.870;13.660;2024-01-10T10:05:30;21.63;;;17.23;;
53411;SDS011;39307;52.870;13.660;2024-01-10T10:07:57;21.58;;;17.45;;
53411;SDS011;39307;52.870;13.660;2024-01-10T10:10:24;21.20;;;17.60;;
53411;SDS011;39307;52.870;13.660;2024-01-10T10:12:51;23.58;;;18.55;;
53411;SDS011;39307;52.870;13.660;2024-01-10T10:15:21;23.10;;;18.58;;
53411;SDS011;39307;52.870;13.660;2024-01-10T10:17:50;22.25;;;18.38;;
53411;SDS011;39307;52.870;13.660;2024-01-10T10:20:24;22.48;;;18.55;;
53411;SDS011;39307;52.870;13.660;2024-01-10T10:23:00;22.80;;;18.97;;
53411;SDS011;39307;52.870;13.660;2024-01-10T10:25:32;23.38;;;19.23;;
53411;SDS011;39307;52.870;13.660;2024-01-10T10:28:02;23.65;;;18.67;;
53411;SDS011;39307;52.870;13.660;2024-01-10T10:30:30;22.35;;;18.52;;
53411;SDS011;39307;52.870;13.660;2024-01-10T10:32:58;23.92;;;18.73;;
53411;SDS011;39307;52.870;13.660;2024-01-10T10:35:25;23.45;;;19.13;;
53411;SDS011;39307;52.870;13.660;2024-01-10T10:37:52;23.40;;;19.20;;
53411;SDS011;39307;52.870;13.660;2024-01-10T10:40:20;26.08;;;20.05;;
53411;SDS011;39307;52.870;13.660;2024-01-10T10:42:56;22.87;;;19.23;;
53411;SDS011;39307;52.870;13.660;2024-01-10T10:45:23;21.35;;;17.05;;
53411;SDS011;39307;52.870;13.660;2024-01-10T10:47:50;21.08;;;17.30;;
53411;SDS011;39307;52.870;13.660;2024-01-10T10:50:28;22.35;;;17.58;;
53411;SDS011;39307;52.870;13.660;2024-01-10T10:53:00;22.23;;;17.90;;
53411;SDS011;39307;52.870;13.660;2024-01-10T10:55:29;21.35;;;17.70;;
53411;SDS011;39307;52.870;13.660;2024-01-10T10:57:57;23.77;;;19.27;;
53411;SDS011;39307;52.870;13.660;2024-01-10T11:00:28;23.55;;;18.65;;
53411;SDS011;39307;52.870;13.660;2024-01-10T11:02:55;24.45;;;19.30;;
53411;SDS011;39307;52.870;13.660;2024-01-10T11:05:22;23.48;;;18.80;;
53411;SDS011;39307;52.870;13.660;2024-01-10T11:07:51;24.45;;;19.45;;
53411;SDS011;39307;52.870;13.660;2024-01-10T11:10:27;24.80;;;20.00;;
53411;SDS011;39307;52.870;13.660;2024-01-10T11:21:28;23.65;;;19.33;;
53411;SDS011;39307;52.870;13.660;2024-01-10T11:24:19;24.15;;;19.60;;
53411;SDS011;39307;52.870;13.660;2024-01-10T11:26:47;23.67;;;19.60;;
53411;SDS011;39307;52.870;13.660;2024-01-10T11:29:14;25.80;;;20.60;;
53411;SDS011;39307;52.870;13.660;2024-01-10T11:31:41;24.00;;;19.52;;
53411;SDS011;39307;52.870;13.660;2024-01-10T11:34:22;21.88;;;17.70;;
53411;SDS011;39307;52.870;13.660;2024-01-10T11:37:24;21.63;;;17.58;;
53411;SDS011;39307;52.870;13.660;2024-01-10T11:39:44;21.98;;;17.75;;
53411;SDS011;39307;52.870;13.660;2024-01-10T11:42:11;22.38;;;18.63;;
53411;SDS011;39307;52.870;13.660;2024-01-10T11:44:48;24.00;;;19.15;;
53411;SDS011;39307;52.870;13.660;2024-01-10T11:47:17;22.88;;;18.75;;
53411;SDS011;39307;52.870;13.660;2024-01-10T11:49:57;24.35;;;19.45;;
53411;SDS011;39307;52.870;13.660;2024-01-10T11:52:31;23.65;;;19.23;;
53411;SDS011;39307;52.870;13.660;2024-01-10T11:55:01;24.27;;;19.23;;
53411;SDS011;39307;52.870;13.660;2024-01-10T11:57:29;24.25;;;20.42;;
53411;SDS011;39307;52.870;13.660;2024-01-10T11:59:56;25.52;;;19.88;;
53411;SDS011;39307;52.870;13.660;2024-01-10T12:02:23;22.80;;;18.77;;
53411;SDS011;39307;52.870;13.660;2024-01-10T12:04:50;23.85;;;19.38;;
53411;SDS011;39307;52.870;13.660;2024-01-10T12:07:17;24.58;;;19.95;;
53411;SDS011;39307;52.870;13.660;2024-01-10T12:09:45;23.45;;;19.38;;
53411;SDS011;39307;52.870;13.660;2024-01-10T12:12:13;24.75;;;19.98;;
53411;SDS011;39307;52.870;13.660;2024-01-10T12:14:40;24.13;;;19.83;;
53411;SDS011;39307;52.870;13.660;2024-01-10T12:17:08;23.45;;;18.92;;
53411;SDS011;39307;52.870;13.660;2024-01-10T12:19:35;22.02;;;17.92;;
53411;SDS011;39307;52.870;13.660;2024-01-10T12:22:03;20.23;;;16.60;;
53411;SDS011;39307;52.870;13.660;2024-01-10T12:24:31;23.08;;;18.55;;
53411;SDS011;39307;52.870;13.660;2024-01-10T12:26:58;22.63;;;17.90;;
53411;SDS011;39307;52.870;13.660;2024-01-10T12:29:25;23.23;;;18.15;;
53411;SDS011;39307;52.870;13.660;2024-01-10T12:31:52;23.05;;;18.73;;
53411;SDS011;39307;52.870;13.660;2024-01-10T12:34:19;22.92;;;18.83;;
53411;SDS011;39307;52.870;13.660;2024-01-10T12:36:46;22.42;;;18.35;;
53411;SDS011;39307;52.870;13.660;2024-01-10T12:39:13;23.73;;;19.38;;
53411;SDS011;39307;52.870;13.660;2024-01-10T12:41:41;23.30;;;18.77;;
53411;SDS011;39307;52.870;13.660;2024-01-10T12:44:07;23.83;;;19.23;;
53411;SDS011;39307;52.870;13.660;2024-01-10T12:46:36;23.70;;;18.75;;
53411;SDS011;39307;52.870;13.660;2024-01-10T12:49:16;23.17;;;19.15;;
53411;SDS011;39307;52.870;13.660;2024-01-10T12:51:44;22.98;;;18.50;;
53411;SDS011;39307;52.870;13.660;2024-01-10T12:54:12;25.10;;;20.23;;
53411;SDS011;39307;52.870;13.660;2024-01-10T12:56:39;24.23;;;19.98;;
53411;SDS011;39307;52.870;13.660;2024-01-10T12:59:06;24.30;;;19.70;;
53411;SDS011;39307;52.870;13.660;2024-01-10T13:01:33;23.02;;;19.08;;
53411;SDS011;39307;52.870;13.660;2024-01-10T13:04:00;22.15;;;18.00;;
53411;SDS011;39307;52.870;13.660;2024-01-10T13:06:27;20.15;;;16.42;;
53411;SDS011;39307;52.870;13.660;2024-01-10T13:08:54;20.70;;;16.70;;
53411;SDS011;39307;52.870;13.660;2024-01-10T13:11:21;21.70;;;17.25;;
53411;SDS011;39307;52.870;13.660;2024-01-10T13:13:48;20.48;;;17.02;;
53411;SDS011;39307;52.870;13.660;2024-01-10T13:16:15;22.37;;;17.50;;
53411;SDS011;39307;52.870;13.660;2024-01-10T13:18:42;22.15;;;18.20;;
53411;SDS011;39307;52.870;13.660;2024-01-10T13:21:09;22.52;;;18.48;;
53411;SDS011;39307;52.870;13.660;2024-01-10T13:23:36;23.55;;;18.52;;
53411;SDS011;39307;52.870;13.660;2024-01-10T13:26:02;23.13;;;18.58;;
53411;SDS011;39307;52.870;13.660;2024-01-10T13:28:29;21.75;;;17.77;;
53411;SDS011;39307;52.870;13.660;2024-01-10T13:30:56;22.47;;;18.60;;
53411;SDS011;39307;52.870;13.660;2024-01-10T13:33:23;22.73;;;18.48;;
53411;SDS011;39307;52.870;13.660;2024-01-10T13:35:50;22.90;;;18.38;;
53411;SDS011;39307;52.870;13.660;2024-01-10T13:38:17;22.27;;;17.98;;
53411;SDS011;39307;52.870;13.660;2024-01-10T13:40:43;23.13;;;18.47;;
53411;SDS011;39307;52.870;13.660;2024-01-10T13:43:10;22.17;;;18.02;;
53411;SDS011;39307;52.870;13.660;2024-01-10T13:45:37;23.83;;;19.17;;
53411;SDS011;39307;52.870;13.660;2024-01-10T13:48:04;24.38;;;19.10;;
53411;SDS011;39307;52.870;13.660;2024-01-10T13:50:31;21.85;;;17.85;;
53411;SDS011;39307;52.870;13.660;2024-01-10T13:52:58;19.40;;;16.10;;
53411;SDS011;39307;52.870;13.660;2024-01-10T13:55:25;19.92;;;16.10;;
53411;SDS011;39307;52.870;13.660;2024-01-10T13:57:52;19.75;;;15.98;;
53411;SDS011;39307;52.870;13.660;2024-01-10T14:00:19;19.98;;;16.40;;
53411;SDS011;39307;52.870;13.660;2024-01-10T14:02:46;19.48;;;16.80;;
53411;SDS011;39307;52.870;13.660;2024-01-10T14:05:14;21.25;;;17.58;;
53411;SDS011;39307;52.870;13.660;2024-01-10T14:07:41;21.15;;;17.45;;
53411;SDS011;39307;52.870;13.660;2024-01-10T14:10:08;20.45;;;16.95;;
53411;SDS011;39307;52.870;13.660;2024-01-10T14:12:35;21.17;;;16.95;;
53411;SDS011;39307;52.870;13.660;2024-01-10T14:15:02;22.08;;;17.95;;
53411;SDS011;39307;52.870;13.660;2024-01-10T14:17:29;19.83;;;16.52;;
53411;SDS011;39307;52.870;13.660;2024-01-10T14:19:56;21.58;;;17.58;;
53411;SDS011;39307;52.870;13.660;2024-01-10T14:22:23;20.30;;;17.15;;